Time;durP1;ratioP1;P1;durP2;ratioP2;P2;SDS_P1;SDS_P2;PMS_P1;PMS_P2;Temp;Humidity;BMP_temperature;BMP_pressure;BME280_temperature;BME280_humidity;BME280_pressure;Samples;Min_cycle;Max_cycle;Signal;HPM_P1;HPM_P2
2022/08/29 00:00:48;;;;;;;11.00;4.20;;;;;;;15.95;69.60;102098.22;5169598;28;20069;-83
2022/08/29 00:03:19;;;;;;;8.00;3.03;;;;;;;15.90;70.41;102084.44;5154934;28;20117;-84
2022/08/29 00:05:51;;;;;;;10.13;3.83;;;;;;;16.18;68.97;102088.84;5171586;28;20526;-87
2022/08/29 00:08:23;;;;;;;8.73;3.43;;;;;;;15.88;70.43;102092.47;5156499;28;20047;-85
2022/08/29 00:10:54;;;;;;;7.90;3.60;;;;;;;15.86;70.76;102094.34;5156872;28;20042;-84
2022/08/29 00:13:26;;;;;;;8.80;4.30;;;;;;;16.11;69.57;102098.09;5157415;28;20162;-85
2022/08/29 00:15:57;;;;;;;6.03;3.83;;;;;;;15.83;70.09;102089.25;5158025;28;20078;-84
2022/08/29 00:18:29;;;;;;;11.50;5.23;;;;;;;15.70;71.18;102095.31;5159196;28;20316;-85
2022/08/29 00:21:02;;;;;;;7.87;3.80;;;;;;;15.82;70.45;102080.47;5158920;28;20105;-84
2022/08/29 00:23:33;;;;;;;8.23;4.07;;;;;;;15.94;70.27;102089.41;5157230;28;21040;-82
2022/08/29 00:26:05;;;;;;;10.90;5.20;;;;;;;15.77;70.92;102087.84;5156898;28;20122;-84
2022/08/29 00:28:36;;;;;;;8.27;4.33;;;;;;;15.81;70.77;102081.41;5157763;28;20034;-84
2022/08/29 00:31:07;;;;;;;11.27;5.13;;;;;;;15.69;71.33;102080.38;5171956;28;20038;-83
2022/08/29 00:33:39;;;;;;;10.40;4.47;;;;;;;15.94;70.01;102083.28;5157939;28;20033;-84
2022/08/29 00:36:10;;;;;;;10.83;4.23;;;;;;;15.96;69.77;102082.25;5157294;28;20524;-84
2022/08/29 00:38:41;;;;;;;10.97;4.53;;;;;;;15.39;72.20;102089.25;5157509;28;20122;-84
2022/08/29 00:41:13;;;;;;;11.07;4.67;;;;;;;15.57;71.33;102087.28;5166249;28;20110;-84
2022/08/29 00:43:45;;;;;;;10.17;4.77;;;;;;;15.62;70.94;102089.66;5176967;28;20031;-84
2022/08/29 00:46:42;;;;;;;7.57;4.60;;;;;;;15.55;72.31;102096.25;5172649;28;20080;-84
2022/08/29 00:49:38;;;;;;;9.33;5.20;;;;;;;15.45;72.62;102093.31;5168171;28;20674;-77
2022/08/29 00:52:17;;;;;;;11.17;4.60;;;;;;;15.48;72.17;102093.13;5180314;28;20031;-84
2022/08/29 00:54:52;;;;;;;12.93;5.83;;;;;;;15.34;73.24;102086.88;5166254;28;20063;-84
2022/08/29 00:57:26;;;;;;;12.93;5.53;;;;;;;15.22;73.56;102093.75;5167589;28;20183;-85
2022/08/29 00:59:58;;;;;;;16.40;6.87;;;;;;;15.26;73.86;102091.78;5168397;28;20098;-85
2022/08/29 01:02:29;;;;;;;11.67;5.90;;;;;;;15.40;72.64;102096.22;5176862;28;20358;-85
2022/08/29 01:05:01;;;;;;;17.40;5.73;;;;;;;15.42;72.20;102094.34;5187696;28;20027;-84
2022/08/29 01:07:33;;;;;;;16.27;6.40;;;;;;;15.16;74.09;102094.13;5179104;28;20643;-85
2022/08/29 01:10:06;;;;;;;12.60;7.73;;;;;;;15.07;74.44;102084.97;5166844;28;20069;-84
2022/08/29 01:12:37;;;;;;;15.13;6.73;;;;;;;15.38;72.75;102095.47;5167885;28;20073;-84
2022/08/29 01:15:11;;;;;;;14.33;6.70;;;;;;;15.05;73.88;102092.13;5170866;28;20062;-84
2022/08/29 01:17:46;;;;;;;13.98;5.82;;;;;;;15.34;72.63;102102.72;5171115;28;20073;-84
2022/08/29 01:20:39;;;;;;;13.10;6.83;;;;;;;15.36;72.43;102106.13;5170470;28;20073;-84
2022/08/29 01:23:22;;;;;;;15.83;6.87;;;;;;;15.24;73.28;102093.66;5169172;28;20035;-83
2022/08/29 01:25:54;;;;;;;13.40;6.70;;;;;;;14.92;74.66;102099.94;5185305;28;20050;-84
2022/08/29 01:28:31;;;;;;;10.47;7.17;;;;;;;14.99;74.90;102103.06;5170957;28;20069;-84
2022/08/29 01:31:05;;;;;;;18.03;8.13;;;;;;;15.05;74.70;102096.53;5169403;28;20429;-85
2022/08/29 01:33:38;;;;;;;14.47;7.13;;;;;;;15.17;73.33;102105.53;5170448;28;20037;-85
2022/08/29 01:36:14;;;;;;;19.80;7.53;;;;;;;15.14;74.13;102098.66;5185786;28;20035;-85
2022/08/29 01:38:46;;;;;;;13.77;7.30;;;;;;;15.00;74.74;102104.72;5170526;28;20063;-86
2022/08/29 01:41:19;;;;;;;14.53;8.03;;;;;;;14.74;76.47;102094.75;5169741;28;20118;-85
2022/08/29 01:43:53;;;;;;;13.93;7.80;;;;;;;14.66;77.08;102070.59;5170674;28;20046;-84
2022/08/29 01:46:28;;;;;;;12.05;6.45;;;;;;;14.77;76.29;102083.16;5169960;28;20030;-84
2022/08/29 01:49:02;;;;;;;11.73;6.97;;;;;;;14.82;75.80;102086.41;5169393;28;20034;-85
2022/08/29 01:51:35;;;;;;;13.23;7.80;;;;;;;14.93;75.03;102087.56;5170461;28;20088;-84
2022/08/29 01:54:10;;;;;;;15.27;7.13;;;;;;;14.64;76.47;102094.41;5169798;28;20027;-84
2022/08/29 01:56:43;;;;;;;;;;;;;;;15.14;72.00;102085.44;5170411;28;20066;-85
2022/08/29 01:59:17;;;;;;;11.50;6.67;;;;;;;14.76;74.94;102074.41;5173773;28;19926;-84
2022/08/29 02:01:53;;;;;;;12.73;7.57;;;;;;;14.73;75.45;102089.56;5170516;28;20031;-85
2022/08/29 02:04:24;;;;;;;11.93;8.07;;;;;;;14.49;76.79;102095.28;5169905;28;20484;-84
2022/08/29 02:06:56;;;;;;;13.10;7.27;;;;;;;14.44;77.55;102092.91;5170547;28;20022;-84
2022/08/29 02:09:28;;;;;;;11.50;7.33;;;;;;;14.47;76.53;102090.09;5168442;28;20081;-85
2022/08/29 02:12:03;;;;;;;13.13;7.63;;;;;;;14.61;76.45;102099.00;5178620;28;20023;-84
2022/08/29 02:14:35;;;;;;;12.27;7.57;;;;;;;14.36;77.69;102084.59;5173629;28;20038;-83
2022/08/29 02:17:07;;;;;;;16.00;8.07;;;;;;;14.47;76.20;102086.63;5189371;28;20484;-85
2022/08/29 02:19:38;;;;;;;12.37;7.03;;;;;;;14.26;77.32;102081.63;5190767;28;20854;-84
2022/08/29 02:22:10;;;;;;;17.70;8.67;;;;;;;14.44;76.59;102098.19;5177740;28;20050;-84
2022/08/29 02:24:42;;;;;;;14.13;8.33;;;;;;;14.52;76.30;102101.22;5169348;28;20467;-83
2022/08/29 02:27:13;;;;;;;14.40;7.77;;;;;;;14.40;76.76;102101.91;5170241;28;20564;-84
2022/08/29 02:29:44;;;;;;;14.43;8.10;;;;;;;14.27;76.99;102094.72;5172416;28;20121;-84
2022/08/29 02:32:15;;;;;;;15.47;8.80;;;;;;;14.57;76.11;102108.03;5172557;28;20031;-85
2022/08/29 02:34:47;;;;;;;13.47;8.10;;;;;;;14.47;75.89;102105.91;5169339;28;20662;-82
2022/08/29 02:37:18;;;;;;;14.10;8.33;;;;;;;14.47;76.34;102107.72;5169837;28;20529;-83
2022/08/29 02:39:49;;;;;;;14.13;9.20;;;;;;;14.39;76.39;102106.34;5168753;28;20747;-84
2022/08/29 02:42:20;;;;;;;14.20;8.63;;;;;;;14.28;77.08;102120.13;5169384;28;20043;-84
2022/08/29 02:44:52;;;;;;;18.77;10.00;;;;;;;14.14;78.67;102117.38;5169361;28;20035;-83
2022/08/29 02:47:24;;;;;;;18.47;10.33;;;;;;;14.40;77.15;102112.47;5169240;28;20050;-83
2022/08/29 02:49:55;;;;;;;17.00;10.07;;;;;;;14.11;78.83;102118.44;5169299;28;20101;-83
2022/08/29 02:52:26;;;;;;;18.80;9.93;;;;;;;14.14;79.17;102112.13;5184290;28;20687;-83
2022/08/29 02:54:57;;;;;;;17.93;10.23;;;;;;;14.35;78.44;102114.50;5168107;28;20560;-83
2022/08/29 02:57:29;;;;;;;16.07;9.80;;;;;;;14.27;78.03;102113.16;5169359;28;20023;-84
2022/08/29 03:00:00;;;;;;;16.83;10.07;;;;;;;14.25;77.80;102109.75;5168853;28;20110;-84
2022/08/29 03:02:31;;;;;;;15.50;10.43;;;;;;;14.39;77.35;102113.41;5169104;28;20035;-84
2022/08/29 03:05:04;;;;;;;18.73;9.77;;;;;;;14.30;78.23;102109.50;5167389;28;20077;-84
2022/08/29 03:07:35;;;;;;;17.93;10.10;;;;;;;14.35;77.97;102109.22;5168194;28;20047;-84
2022/08/29 03:10:07;;;;;;;17.70;9.73;;;;;;;14.33;78.10;102114.59;5165194;28;20033;-84
2022/08/29 03:12:39;;;;;;;19.23;9.87;;;;;;;14.27;78.13;102115.81;5167775;28;20136;-86
2022/08/29 03:15:11;;;;;;;17.30;10.30;;;;;;;14.26;78.24;102115.91;5168716;28;20029;-83
2022/08/29 03:17:43;;;;;;;17.10;10.47;;;;;;;14.22;78.21;102103.81;5168801;28;20022;-84
2022/08/29 03:20:18;;;;;;;15.63;9.60;;;;;;;14.07;80.21;102121.31;5168561;28;20539;-84
2022/08/29 03:22:52;;;;;;;23.05;10.88;;;;;;;14.04;80.08;102109.16;5169100;28;20982;-85
2022/08/29 03:25:24;;;;;;;16.60;9.90;;;;;;;13.98;80.64;102106.88;5167302;28;20042;-83
2022/08/29 03:27:58;;;;;;;15.27;9.57;;;;;;;13.92;80.70;102105.41;5169375;28;20037;-84
2022/08/29 03:30:29;;;;;;;15.77;9.90;;;;;;;13.89;81.02;102110.84;5168279;28;20133;-84
2022/08/29 03:33:01;;;;;;;19.03;9.40;;;;;;;13.75;81.48;102101.03;5168579;28;20146;-84
2022/08/29 03:35:33;;;;;;;16.43;10.23;;;;;;;13.69;81.88;102096.94;5169196;28;20728;-85
2022/08/29 03:38:04;;;;;;;18.47;10.07;;;;;;;13.73;81.31;102106.41;5166492;28;20037;-84
2022/08/29 03:40:35;;;;;;;23.23;9.93;;;;;;;13.60;82.31;102097.44;5167400;28;20022;-83
2022/08/29 03:43:08;;;;;;;15.77;10.20;;;;;;;13.54;82.63;102082.81;5168992;28;20117;-85
2022/08/29 03:45:39;;;;;;;17.33;9.80;;;;;;;13.55;82.32;102074.84;5167170;28;20029;-84
2022/08/29 03:48:10;;;;;;;16.40;9.30;;;;;;;13.60;83.04;102079.00;5181763;28;20034;-84
2022/08/29 03:50:42;;;;;;;18.03;9.93;;;;;;;13.44;83.95;102071.88;5167866;28;20031;-85
2022/08/29 03:53:13;;;;;;;17.13;9.60;;;;;;;13.57;84.18;102073.91;5167898;28;20035;-75
2022/08/29 03:55:45;;;;;;;22.87;11.10;;;;;;;13.52;84.60;102075.03;5167385;28;20093;-85
2022/08/29 03:58:16;;;;;;;19.77;11.67;;;;;;;13.45;85.63;102073.59;5168007;28;20615;-85
2022/08/29 04:00:48;;;;;;;21.27;12.03;;;;;;;13.50;85.32;102068.94;5168311;28;20133;-84
2022/08/29 04:03:19;;;;;;;20.93;11.47;;;;;;;13.51;86.17;102073.25;5163479;28;20035;-85
2022/08/29 04:05:51;;;;;;;26.90;12.83;;;;;;;13.59;85.38;102065.00;5168183;28;20772;-83
2022/08/29 04:08:22;;;;;;;21.13;11.00;;;;;;;13.54;85.40;102064.41;5168144;28;20054;-85
2022/08/29 04:10:53;;;;;;;17.50;10.33;;;;;;;13.47;86.42;102060.34;5167653;28;20121;-84
2022/08/29 04:13:25;;;;;;;22.57;12.43;;;;;;;13.52;85.85;102064.50;5167514;28;20114;-84
2022/08/29 04:15:56;;;;;;;23.37;11.40;;;;;;;13.52;86.31;102077.66;5168150;28;20035;-86
2022/08/29 04:18:27;;;;;;;17.07;9.67;;;;;;;13.60;85.54;102079.00;5167692;28;20037;-86
2022/08/29 04:21:03;;;;;;;21.63;10.23;;;;;;;13.48;86.86;102083.09;5168131;28;20043;-86
2022/08/29 04:23:36;;;;;;;24.27;10.47;;;;;;;13.55;85.95;102084.50;5167115;28;20105;-86
2022/08/29 04:26:13;;;;;;;20.93;10.30;;;;;;;13.48;86.32;102083.09;5167184;28;20397;-87
2022/08/29 04:28:44;;;;;;;19.33;8.57;;;;;;;13.47;86.12;102081.41;5164278;28;20035;-87
2022/08/29 04:31:20;;;;;;;17.27;9.57;;;;;;;13.71;84.38;102075.81;5179198;28;20034;-86
2022/08/29 04:33:52;;;;;;;26.00;10.13;;;;;;;13.46;85.84;102085.81;5182458;28;20501;-86
2022/08/29 04:36:23;;;;;;;22.13;10.80;;;;;;;13.67;84.21;102094.41;5168122;28;20026;-84
2022/08/29 04:38:54;;;;;;;18.70;9.23;;;;;;;13.69;84.25;102090.81;5166541;28;20464;-82
2022/08/29 04:41:26;;;;;;;14.30;8.63;;;;;;;13.51;85.05;102088.22;5167217;28;20433;-80
2022/08/29 04:43:57;;;;;;;15.23;9.53;;;;;;;13.29;86.90;102092.81;5182734;28;20035;-82
2022/08/29 04:46:29;;;;;;;17.10;9.50;;;;;;;13.46;86.49;102091.09;5167879;28;20067;-79
2022/08/29 04:49:00;;;;;;;12.73;8.33;;;;;;;13.44;86.45;102087.66;5168225;28;20064;-77
2022/08/29 04:51:34;;;;;;;13.97;9.00;;;;;;;13.47;86.17;102097.19;5171333;28;20039;-78
2022/08/29 04:54:05;;;;;;;17.95;9.68;;;;;;;13.61;85.13;102092.09;5169867;28;20046;-76
2022/08/29 04:56:37;;;;;;;15.87;8.40;;;;;;;13.47;85.63;102082.28;5170975;28;20027;-74
2022/08/29 04:59:08;;;;;;;16.53;8.03;;;;;;;13.66;84.84;102094.50;5171091;28;20034;-79
2022/08/29 05:01:40;;;;;;;15.83;8.77;;;;;;;13.66;84.34;102097.13;5170696;28;20406;-84
2022/08/29 05:04:12;;;;;;;14.53;8.57;;;;;;;13.28;85.71;102080.56;5171781;28;20050;-85
2022/08/29 05:06:43;;;;;;;11.30;8.00;;;;;;;13.30;87.16;102091.88;5170008;28;20038;-79
2022/08/29 05:09:14;;;;;;;12.50;7.60;;;;;;;13.26;87.33;102092.13;5169971;28;20102;-85
2022/08/29 05:11:46;;;;;;;16.73;8.13;;;;;;;13.31;87.58;102093.59;5171017;28;20123;-84
2022/08/29 05:14:17;;;;;;;14.63;8.33;;;;;;;13.26;87.48;102095.63;5169111;28;20061;-85
2022/08/29 05:16:49;;;;;;;13.63;8.17;;;;;;;13.22;88.10;102088.78;5170991;28;20023;-85
2022/08/29 05:19:20;;;;;;;12.00;7.37;;;;;;;13.57;86.32;102105.50;5170009;28;20057;-84
2022/08/29 05:21:56;;;;;;;16.00;8.03;;;;;;;13.09;88.36;102088.56;5171157;28;20033;-84
2022/08/29 05:24:30;;;;;;;13.50;7.43;;;;;;;13.53;87.19;102107.44;5169938;28;20517;-83
2022/08/29 05:27:07;;;;;;;14.35;8.05;;;;;;;13.40;88.99;102112.47;5151437;28;20042;-83
2022/08/29 05:29:40;;;;;;;11.53;6.83;;;;;;;13.52;87.69;102113.63;5169318;28;20545;-84
2022/08/29 05:32:13;;;;;;;11.80;6.43;;;;;;;13.63;86.98;102118.34;5154387;28;20541;-83
2022/08/29 05:34:47;;;;;;;13.70;6.10;;;;;;;13.60;87.88;102121.97;5163586;28;20038;-84
2022/08/29 05:37:19;;;;;;;11.37;6.47;;;;;;;13.79;86.44;102124.50;5159710;28;20027;-84
2022/08/29 05:39:51;;;;;;;8.77;6.43;;;;;;;13.72;86.57;102120.47;5154132;28;20121;-82
2022/08/29 05:42:22;;;;;;;11.93;7.63;;;;;;;13.74;87.17;102130.91;5168954;28;20039;-84
2022/08/29 05:44:54;;;;;;;13.03;6.37;;;;;;;13.63;87.91;102134.13;5168631;28;20426;-83
2022/08/29 05:47:25;;;;;;;13.87;6.20;;;;;;;13.71;88.01;102136.34;5169164;28;20489;-83
2022/08/29 05:49:57;;;;;;;12.83;5.60;;;;;;;13.66;88.29;102134.84;5161176;28;20154;-82
2022/08/29 05:52:29;;;;;;;8.90;5.37;;;;;;;13.65;87.81;102116.47;5149526;28;20023;-82
2022/08/29 05:55:01;;;;;;;10.23;5.33;;;;;;;13.69;88.14;102139.06;5165929;28;20070;-81
2022/08/29 05:57:32;;;;;;;7.60;4.97;;;;;;;13.77;87.76;102131.63;5170227;28;20744;-80
2022/08/29 06:00:06;;;;;;;11.50;5.70;;;;;;;13.82;87.35;102133.16;5169585;28;20062;-80
2022/08/29 06:02:38;;;;;;;12.87;6.43;;;;;;;13.78;87.13;102128.06;5169111;28;20062;-82
2022/08/29 06:05:10;;;;;;;9.40;5.57;;;;;;;13.93;86.83;102135.22;5166543;28;20062;-81
2022/08/29 06:07:41;;;;;;;8.70;5.83;;;;;;;14.03;85.45;102142.53;5165571;28;20053;-80
2022/08/29 06:10:13;;;;;;;8.67;5.40;;;;;;;14.08;85.05;102142.31;5166356;28;20036;-76
2022/08/29 06:12:44;;;;;;;11.93;6.10;;;;;;;14.06;85.27;102143.31;5153812;28;20169;-76
2022/08/29 06:15:15;;;;;;;8.37;5.50;;;;;;;13.91;85.08;102130.06;5162668;28;20027;-75
2022/08/29 06:17:47;;;;;;;14.37;5.20;;;;;;;14.05;85.48;102144.25;5171018;28;20035;-76
2022/08/29 06:20:18;;;;;;;11.87;5.63;;;;;;;14.14;84.16;102146.38;5155603;28;20567;-80
2022/08/29 06:22:49;;;;;;;15.83;5.93;;;;;;;14.00;85.49;102147.13;5165063;28;20122;-80
2022/08/29 06:25:21;;;;;;;13.70;5.40;;;;;;;14.08;84.40;102149.34;5170334;28;20026;-80
2022/08/29 06:27:53;;;;;;;7.83;4.97;;;;;;;14.13;84.01;102144.69;5167821;28;20944;-78
2022/08/29 06:30:24;;;;;;;12.53;7.00;;;;;;;14.13;84.37;102152.59;5168322;28;20034;-79
2022/08/29 06:32:56;;;;;;;10.63;5.57;;;;;;;14.22;83.97;102149.47;5167223;28;20086;-79
2022/08/29 06:35:27;;;;;;;10.77;6.37;;;;;;;14.29;83.40;102144.69;5166826;28;20509;-79
2022/08/29 06:37:58;;;;;;;15.70;6.23;;;;;;;14.32;83.51;102151.56;5181797;28;20045;-80
2022/08/29 06:40:30;;;;;;;12.03;5.77;;;;;;;14.43;84.37;102156.25;5178430;28;20445;-80
2022/08/29 06:43:01;;;;;;;11.17;6.00;;;;;;;14.35;83.59;102154.88;5167186;28;20121;-80
2022/08/29 06:45:39;;;;;;;10.37;5.87;;;;;;;14.62;82.03;102164.00;5166337;28;20038;-80
2022/08/29 06:48:10;;;;;;;9.57;5.57;;;;;;;14.54;82.44;102163.56;5167528;28;20030;-80
2022/08/29 06:50:41;;;;;;;16.07;7.23;;;;;;;14.75;81.00;102167.63;5165148;28;20096;-79
2022/08/29 06:53:13;;;;;;;11.77;6.60;;;;;;;14.59;80.92;102167.63;5166545;28;20213;-80
2022/08/29 06:55:45;;;;;;;14.53;6.03;;;;;;;14.83;79.28;102167.25;5167156;28;20108;-80
2022/08/29 06:58:17;;;;;;;16.23;6.50;;;;;;;14.82;78.84;102162.06;5166170;28;20043;-79
2022/08/29 07:00:48;;;;;;;14.27;6.93;;;;;;;14.96;77.81;102156.81;5165410;28;20031;-80
2022/08/29 07:03:20;;;;;;;12.07;6.17;;;;;;;14.99;78.06;102159.28;5181480;28;20030;-81
2022/08/29 07:05:52;;;;;;;15.93;7.00;;;;;;;15.02;77.49;102168.81;5167145;28;20029;-78
2022/08/29 07:08:24;;;;;;;13.50;6.67;;;;;;;15.19;76.51;102162.56;5166155;28;20121;-79
2022/08/29 07:10:55;;;;;;;11.53;6.07;;;;;;;15.24;74.58;102164.91;5164295;28;20041;-79
2022/08/29 07:13:27;;;;;;;16.40;6.73;;;;;;;15.29;74.50;102162.84;5166245;28;20041;-80
2022/08/29 07:15:58;;;;;;;14.57;6.27;;;;;;;15.53;75.25;102154.44;5165744;28;20596;-79
2022/08/29 07:18:29;;;;;;;11.80;6.67;;;;;;;15.74;74.18;102156.72;5165391;28;20045;-75
2022/08/29 07:21:05;;;;;;;16.13;6.13;;;;;;;15.96;73.74;102156.22;5168029;28;20105;-79
2022/08/29 07:23:37;;;;;;;10.93;5.40;;;;;;;16.25;70.45;102163.28;5165192;28;20031;-79
2022/08/29 07:26:14;;;;;;;11.43;6.07;;;;;;;16.37;69.43;102144.97;5164980;28;20066;-79
2022/08/29 07:28:47;;;;;;;11.77;6.10;;;;;;;16.69;66.22;102158.75;5166288;28;20035;-80
2022/08/29 07:31:19;;;;;;;11.70;4.80;;;;;;;17.03;63.15;102160.97;5167587;28;20046;-79
2022/08/29 07:33:51;;;;;;;9.93;5.10;;;;;;;17.45;63.05;102152.06;5166519;28;20030;-79
2022/08/29 07:36:22;;;;;;;12.20;5.93;;;;;;;17.70;62.03;102138.94;5166094;28;20045;-80
2022/08/29 07:38:53;;;;;;;9.60;4.30;;;;;;;17.95;60.52;102139.81;5166018;28;20038;-79
2022/08/29 07:41:24;;;;;;;12.63;4.80;;;;;;;18.09;59.52;102136.19;5168671;28;20044;-80
2022/08/29 07:43:56;;;;;;;8.00;4.07;;;;;;;18.28;58.35;102130.44;5180857;28;20035;-80
2022/08/29 07:46:28;;;;;;;7.83;4.00;;;;;;;18.34;57.29;102137.13;5166006;28;20030;-81
2022/08/29 07:48:59;;;;;;;9.30;4.43;;;;;;;18.73;56.58;102139.56;5164007;28;20097;-81
2022/08/29 07:51:31;;;;;;;9.27;3.90;;;;;;;18.89;55.33;102143.72;5167205;28;20117;-93
2022/08/29 07:54:04;;;;;;;8.00;3.20;;;;;;;19.05;53.80;102154.91;5180542;28;20030;-82
2022/08/29 07:56:40;;;;;;;10.67;3.57;;;;;;;19.15;52.75;102148.94;5166516;28;20058;-82
2022/08/29 07:59:12;;;;;;;9.93;4.17;;;;;;;19.49;51.86;102140.16;5166320;28;20026;-82
2022/08/29 08:01:43;;;;;;;9.77;3.97;;;;;;;19.98;51.27;102132.81;5165043;28;20135;-82
2022/08/29 08:04:14;;;;;;;8.00;3.17;;;;;;;;;;5163186;28;20117;-82
2022/08/29 08:06:46;;;;;;;9.23;4.10;;;;;;;20.81;47.84;102152.78;5166220;28;20501;-83
2022/08/29 08:09:17;;;;;;;6.75;3.28;;;;;;;20.98;46.91;102148.72;5162908;28;20086;-82
2022/08/29 08:11:49;;;;;;;6.20;3.50;;;;;;;20.75;48.28;102151.47;5163641;28;20073;-81
2022/08/29 08:14:20;;;;;;;7.20;3.72;;;;;;;20.97;47.75;102152.38;5162844;28;20058;-82
2022/08/29 08:16:51;;;;;;;9.10;3.58;;;;;;;20.66;47.86;102144.25;5165918;28;20037;-81
2022/08/29 08:19:24;;;;;;;8.05;4.10;;;;;;;21.19;46.58;102139.88;5165021;28;20117;-82
2022/08/29 08:21:55;;;;;;;11.43;3.45;;;;;;;21.67;46.36;102145.63;5160680;28;20080;-82
2022/08/29 08:24:26;;;;;;;6.15;3.63;;;;;;;22.53;43.84;102142.59;5170542;28;20114;-81
2022/08/29 08:26:57;;;;;;;6.07;3.38;;;;;;;23.08;42.88;102135.81;5171315;28;20039;-84
2022/08/29 08:29:29;;;;;;;5.95;3.88;;;;;;;23.78;41.68;102136.47;5190898;28;20022;-81
2022/08/29 08:32:00;;;;;;;10.75;3.50;;;;;;;23.47;41.01;102134.91;5188517;28;20026;-82
2022/08/29 08:34:31;;;;;;;12.50;3.47;;;;;;;23.21;40.51;102131.00;5175858;28;20027;-81
2022/08/29 08:37:07;;;;;;;8.35;3.67;;;;;;;23.56;41.67;102144.72;5174072;28;20070;-83
2022/08/29 08:39:38;;;;;;;7.65;3.33;;;;;;;23.38;40.91;102149.13;5170445;28;20598;-78
2022/08/29 08:42:41;;;;;;;7.32;3.63;;;;;;;23.36;42.46;102137.72;5183906;28;20038;-81
2022/08/29 08:45:15;;;;;;;6.70;3.00;;;;;;;23.10;41.11;102147.22;5166452;28;20058;-81
2022/08/29 08:47:55;;;;;;;8.73;2.72;;;;;;;22.58;41.91;102137.69;5172249;28;20070;-81
2022/08/29 08:50:33;;;;;;;7.65;3.95;;;;;;;22.94;41.61;102129.97;5168446;28;20050;-81
2022/08/29 08:53:19;;;;;;;6.03;3.00;;;;;;;22.90;41.03;102133.06;5172322;28;20451;-82
2022/08/29 08:55:53;;;;;;;10.35;3.63;;;;;;;22.80;42.30;102133.06;5172837;28;20054;-81
2022/08/29 08:58:33;;;;;;;8.20;3.80;;;;;;;23.17;41.66;102134.97;5173588;28;20023;-81
2022/08/29 09:01:25;;;;;;;10.00;3.83;;;;;;;23.58;41.87;102141.88;5182156;28;20050;-82
2022/08/29 09:04:09;;;;;;;7.45;3.85;;;;;;;23.28;41.05;102146.47;5166200;28;20035;-78
2022/08/29 09:06:52;;;;;;;8.63;4.43;;;;;;;22.98;41.35;102146.53;5186388;28;20113;-82
2022/08/29 09:09:26;;;;;;;12.35;5.25;;;;;;;22.86;41.61;102132.50;5177712;28;20121;-82
2022/08/29 09:12:16;;;;;;;;;;;;;;;23.73;42.46;102138.75;5174411;28;20529;-82
2022/08/29 09:15:00;;;;;;;8.20;4.28;;;;;;;23.24;42.29;102151.28;5158660;28;20400;-82
2022/08/29 09:17:40;;;;;;;8.63;4.47;;;;;;;23.09;41.81;102153.56;5173085;28;20679;-82
2022/08/29 09:20:27;;;;;;;9.45;4.13;;;;;;;23.37;40.99;102150.94;5166912;28;20035;-82
2022/08/29 09:23:09;;;;;;;9.65;4.25;;;;;;;22.88;41.60;102154.59;5170354;28;20030;-80
2022/08/29 09:25:41;;;;;;;7.47;4.32;;;;;;;22.34;42.29;102134.44;5186531;28;20034;-82
2022/08/29 09:28:12;;;;;;;9.45;4.65;;;;;;;22.53;41.31;102153.28;5158921;28;20035;-82
2022/08/29 09:31:16;;;;;;;9.30;3.80;;;;;;;22.61;42.39;102156.09;5168264;28;20421;-81
2022/08/29 09:33:52;;;;;;;6.80;3.55;;;;;;;21.85;42.56;102161.00;5172980;28;20027;-81
2022/08/29 09:36:45;;;;;;;9.98;3.95;;;;;;;22.23;42.92;102166.59;5169500;28;20023;-81
2022/08/29 09:39:27;;;;;;;7.00;3.35;;;;;;;22.01;42.98;102160.47;5162002;28;20022;-81
2022/08/29 09:42:18;;;;;;;7.25;4.10;;;;;;;22.03;42.95;102160.38;5169406;28;20030;-83
2022/08/29 09:44:58;;;;;;;8.55;3.30;;;;;;;21.49;44.18;102148.91;5169281;28;20117;-82
2022/08/29 09:47:32;;;;;;;9.73;3.70;;;;;;;21.48;44.29;102149.88;5184621;28;20031;-81
2022/08/29 09:50:16;;;;;;;12.25;4.40;;;;;;;21.82;44.53;102158.63;5167989;28;20041;-81
2022/08/29 09:53:02;;;;;;;12.25;4.22;;;;;;;22.22;43.99;102152.38;5168432;28;20034;-81
2022/08/29 09:55:37;;;;;;;12.90;4.75;;;;;;;22.35;42.40;102151.28;5168562;28;20356;-79
2022/08/29 09:58:29;;;;;;;8.95;4.13;;;;;;;22.44;42.31;102161.16;5169784;28;20098;-77
2022/08/29 10:01:09;;;;;;;11.40;3.42;;;;;;;22.56;42.36;102147.66;5167304;28;20019;-78
2022/08/29 10:03:54;;;;;;;18.10;5.32;;;;;;;22.59;42.33;102142.88;5169151;28;20045;-81
2022/08/29 10:06:30;;;;;;;7.97;4.10;;;;;;;21.83;43.63;102141.63;5169452;28;20504;-80
2022/08/29 10:09:04;;;;;;;6.85;3.85;;;;;;;21.80;43.72;102148.06;5164696;28;20587;-79
2022/08/29 10:11:35;;;;;;;;;;;;;;;22.62;42.90;102157.78;5178075;28;20171;-81
2022/08/29 10:14:12;;;;;;;10.40;4.07;;;;;;;22.31;43.59;102155.22;5172295;28;19931;-77
2022/08/29 10:18:19;;;;;;;8.75;3.58;;;;;;;22.89;43.36;102150.06;5160871;28;20034;-77
2022/08/29 10:19:50;;;;;;;8.10;3.83;;;;;;;23.79;41.36;102146.19;5164990;28;20049;-77
2022/08/29 10:22:33;;;;;;;7.90;3.78;;;;;;;24.26;40.52;102150.56;5172988;28;20038;-77
2022/08/29 10:25:19;;;;;;;9.30;4.15;;;;;;;23.99;39.71;102159.44;5168845;28;20045;-77
2022/08/29 10:28:13;;;;;;;7.45;3.65;;;;;;;23.46;40.19;102151.94;5183900;28;20034;-77
2022/08/29 10:31:07;;;;;;;11.23;4.28;;;;;;;23.62;41.71;102148.63;5178299;28;20035;-76
2022/08/29 10:34:07;;;;;;;5.68;4.13;;;;;;;24.20;40.67;102142.31;5168314;28;20030;-76
2022/08/29 10:36:42;;;;;;;7.90;3.58;;;;;;;24.78;39.00;102140.16;5163747;28;20390;-76
2022/08/29 10:39:35;;;;;;;7.35;3.45;;;;;;;25.89;38.38;102136.09;5165319;28;20035;-77
2022/08/29 10:42:13;;;;;;;8.13;4.07;;;;;;;25.90;36.70;102130.59;5170594;28;20030;-76
2022/08/29 10:45:05;;;;;;;11.77;4.07;;;;;;;26.06;38.30;102129.78;5174145;28;20031;-75
2022/08/29 10:48:00;;;;;;;7.97;4.38;;;;;;;26.40;36.81;102138.75;5184600;28;20389;-77
2022/08/29 10:50:57;;;;;;;8.63;4.00;;;;;;;26.60;37.30;102134.91;5168285;28;20053;-76
2022/08/29 10:53:37;;;;;;;5.70;3.85;;;;;;;26.04;36.59;102123.72;5166927;28;20023;-76
2022/08/29 10:56:27;;;;;;;8.80;3.78;;;;;;;26.18;37.50;102132.97;5181397;28;20041;-76
2022/08/29 10:59:06;;;;;;;6.63;4.13;;;;;;;25.82;35.85;102126.03;5165136;28;20496;-78
2022/08/29 11:01:40;;;;;;;8.20;4.28;;;;;;;26.19;35.65;102112.34;5168301;28;20474;-76
2022/08/29 11:04:32;;;;;;;8.43;4.22;;;;;;;25.76;37.53;102113.28;5168253;28;20430;-76
2022/08/29 11:07:10;;;;;;;7.50;3.45;;;;;;;25.46;36.96;102110.09;5154653;28;20031;-76
2022/08/29 11:09:46;;;;;;;8.85;3.67;;;;;;;25.42;35.45;102108.72;5165572;28;20378;-77
2022/08/29 11:12:29;;;;;;;6.05;3.67;;;;;;;25.55;36.60;102101.09;5168174;28;20033;-77
2022/08/29 11:15:06;;;;;;;7.80;3.60;;;;;;;25.15;36.64;102105.25;5170460;28;20531;-77
2022/08/29 11:17:41;;;;;;;10.20;3.90;;;;;;;25.28;37.61;102102.97;5175589;28;20285;-75
2022/08/29 11:20:23;;;;;;;15.00;3.88;;;;;;;25.01;36.93;102110.22;5165993;28;20035;-76
2022/08/29 11:23:04;;;;;;;7.63;3.80;;;;;;;25.12;37.53;102096.53;5169361;28;20038;-77
2022/08/29 11:25:40;;;;;;;8.23;3.67;;;;;;;24.77;38.06;102095.59;5184388;28;20778;-77
2022/08/29 11:28:28;;;;;;;10.00;4.00;;;;;;;24.82;37.19;102084.44;5165368;28;20019;-78
2022/08/29 11:31:15;;;;;;;6.13;3.80;;;;;;;24.76;38.28;102096.59;5169718;28;20101;-78
2022/08/29 11:34:13;;;;;;;7.85;4.15;;;;;;;24.43;38.43;102088.31;5168611;28;20938;-77
2022/08/29 11:37:04;;;;;;;6.60;3.80;;;;;;;25.28;36.96;102072.63;5164704;28;20039;-76
2022/08/29 11:40:02;;;;;;;8.32;4.20;;;;;;;24.87;37.69;102082.13;5156659;28;20039;-76
2022/08/29 11:42:37;;;;;;;7.43;3.80;;;;;;;24.63;38.20;102070.22;5166764;28;20310;-77
2022/08/29 11:45:14;;;;;;;9.30;4.40;;;;;;;24.31;38.94;102077.84;5164376;28;20042;-76
2022/08/29 11:47:45;;;;;;;9.60;3.95;;;;;;;24.46;38.81;102078.13;5173025;28;20739;-76
2022/08/29 11:50:27;;;;;;;6.80;3.45;;;;;;;24.53;38.07;102073.00;5173450;28;20050;-76
2022/08/29 11:53:05;;;;;;;9.82;4.10;;;;;;;24.37;38.12;102079.91;5165405;28;20476;-75
2022/08/29 11:55:38;;;;;;;9.50;3.15;;;;;;;24.71;37.63;102061.41;5170257;28;20035;-74